This is the latest recevied weather packets stored in our database for station/object OZ7MKS. If no packets are shown the sender has not sent any weather packets the latest 10 day(s).
| Time | Temp. | Humidity | Pressure | Rain* | Wind** | Luminosity | Snow |
|---|---|---|---|---|---|---|---|
| 1778026504 | 4.44° C | 90% | 1012.8 hPa | 0 mm | - | - | - |
| 1778025304 | 4.44° C | 88% | 1012.9 hPa | 0 mm | - | - | - |
| 1778022604 | 5° C | 86% | 1013.2 hPa | 0 mm | - | - | - |
| 1778022004 | 5° C | 86% | 1013.2 hPa | 0 mm | - | - | - |
| 1778019903 | 5° C | 84% | 1013.3 hPa | 0 mm | - | - | - |
| 1778017805 | 5.56° C | 83% | 1013.3 hPa | 0 mm | - | - | - |
| 1778016304 | 6.11° C | 84% | 1013.5 hPa | 0 mm | - | - | - |
| 1778016004 | 6.11° C | 84% | 1013.5 hPa | 0 mm | - | - | - |
| 1778014804 | 6.67° C | 84% | 1013.5 hPa | 0 mm | - | - | - |
| 1778014504 | 6.67° C | 84% | 1013.5 hPa | 0 mm | - | - | - |
| 1778013304 | 6.67° C | 83% | 1013.4 hPa | 0 mm | - | - | - |
| 1778012704 | 7.22° C | 83% | 1013.4 hPa | 0 mm | - | - | - |
| 1778012104 | 7.22° C | 83% | 1013.3 hPa | 0 mm | - | - | - |
| 1778008204 | 7.78° C | 77% | 1013 hPa | 0 mm | - | - | - |
| 1778005504 | 8.33° C | 77% | 1012.9 hPa | 0 mm | - | - | - |
| 1778004604 | 8.89° C | 77% | 1012.8 hPa | 0 mm | - | - | - |
| 1778001604 | 10° C | 75% | 1012.6 hPa | 0 mm | - | - | - |
| 1777997103 | 11.67° C | 66% | 1012.7 hPa | 0 mm | - | - | - |
| 1777996804 | 11.67° C | 63% | 1012.7 hPa | 0 mm | - | - | - |
| 1777994404 | 12.22° C | 64% | 1012.7 hPa | 0 mm | - | - | - |
| 1777992004 | 12.22° C | 66% | 1012.5 hPa | 0 mm | - | - | - |
| 1777988404 | 13.89° C | 52% | 1012.6 hPa | 0 mm | - | - | - |
| 1777987204 | 13.89° C | 58% | 1012.5 hPa | 0 mm | - | - | - |
| 1777985404 | 13.89° C | 58% | 1012.5 hPa | 0 mm | - | - | - |
| 1777984804 | 13.89° C | 55% | 1012.4 hPa | 0 mm | - | - | - |
* Rain latest hour (hover to see other rain measurements)
** Current wind speed in m/s (hover to see current wind gust speed)